Messwerte Iranshahr

Temperatur

Temperatur
°C
1574134200 7.00 7.00 14
1574137800 8.00 8.00 16
1574141400 9.00 9.00 20
1574145000 10.00 10.00 22
1574148600 11.00 11.00 25
1574152200 12.00 12.00 26
1574155800 13.00 13.00 27
1574159400 14.00 14.00 28
1574163000 15.00 15.00 28
1574166600 16.00 16.00 28
1574170200 17.00 17.00 27
1574173800 18.00 18.00 25
1574177400 19.00 19.00 24
1574181000 20.00 20.00 21
1574184600 21.00 21.00 20
1574188200 22.00 22.00 18
1574191800 23.00 23.00 18
1574195400 0.00 0.00 18
1574199000 1.00 1.00 16
1574202600 2.00 2.00
1574206200 3.00 3.00
1574209800 4.00 4.00 16
1574213400 5.00 5.00
1574217000 6.00 6.00 16

Aktuellste Messwerte

Wettercharakter
Wetter: wechselnd bewölkt
Temperatur
16 °C
Feuchtigkeit
25 %
Wind
10 km/hWindrichtung: Nordost
Luftdruck
1015 hPa
Messzeit: 20. November 2019, 6.30Datenquelle: METAR

Weitere Messstationen in der Nähe

Messstation Temperatur Entfernung
Zahedan 12 °C 253 km
Jask 24 °C 340 km
Bandar Abbas 18 °C 428 km
Zabol 10 °C 434 km
Maskat 24 °C 470 km
Fujairah 25 °C 494 km
Kerman 7 °C 497 km

Wind

Windrichtung Böen Mittelwind
° km/h km/h
1574134200 7.00 6.00 - 7.00 20° 15
1574137800 8.00 7.00 - 8.00 30° 10
1574141400 9.00 8.00 - 9.00 50° 10
1574145000 10.00 9.00 - 10.00 0
1574148600 11.00 10.00 - 11.00 0
1574152200 12.00 11.00 - 12.00 0
1574155800 13.00 12.00 - 13.00 360° 5
1574159400 14.00 13.00 - 14.00 280° 5
1574163000 15.00 14.00 - 15.00 230° 10
1574166600 16.00 15.00 - 16.00 300° 10
1574170200 17.00 16.00 - 17.00 280° 10
1574173800 18.00 17.00 - 18.00 290° 10
1574177400 19.00 18.00 - 19.00 310° 5
1574181000 20.00 19.00 - 20.00 320° 5
1574184600 21.00 20.00 - 21.00 0
1574188200 22.00 21.00 - 22.00 0
1574191800 23.00 22.00 - 23.00 360° 10
1574195400 0.00 23.00 - 0.00 10° 5
1574199000 1.00 0.00 - 1.00 30° 5
1574202600 2.00 1.00 - 2.00
1574206200 3.00 2.00 - 3.00
1574209800 4.00 3.00 - 4.00 10° 10
1574213400 5.00 4.00 - 5.00
1574217000 6.00 5.00 - 6.00 10° 5

Ihre Wetterstation

Fehlt Ihre Wetterstation auf unserem Portal?

Schreiben Sie an network@meteonews.ch

Klima

Wann ist es am wärmsten? Wann regnet es am wenigsten? Unsere Klimadaten geben Auskunft.